« 定点 富山空港他 2024/4/6 sat | トップページ | 定点 富山空港 2024/4/11 thu »

2024/04/07

定点 伏木・富山空港・東八尾 2024/4/7 sun

穏やかなビューティフル・サンデイ。皆さんお花見に忙しいかな。

RJNT 062300Z VRB02KT CAVOK 15/08 Q1018

今日は、いつもの難破船でなくて、大きな船が来るというので、そこからスタートです。

20240407_0fushiki_00westerdam

庄川右岸に着くと、靄の中に船影が見えます。昨晩境港を出航して朝に到着してます。

20240407_0fushiki_01westerdam

先導は「日本海」

RJNT 070000Z 06003KT 360V130 CAVOK 16/08 Q1018

20240407_0fushiki_02westerdam

艫は、「長田丸」がお供をします。

20240407_0fushiki_03westerdam

オランダ船籍の「Westerdam」8万トンもあるぜよ。

20240407_0fushiki_04westerdam

水鳥さんがトレイル

20240407_0fushiki_05westerdam

小じゃれたファンネル

20240407_0fushiki_06westerdam

会社は、「Holland America Line.」

20240407_0fushiki_07westerdam

定置港は「ROTTERDAM」

20240407_0fushiki_08westerdam

万葉埠頭に接岸します。

20240407_0fushiki_09westerdam

さて、ここから廻頭です。

20240407_0fushiki_10westerdam

自船のスラスターでゆっくり回転します。タグはイザと言う時の安全牌。

20240407_0fushiki_11westerdam

まあ、すごいことですね。

20240407_0fushiki_12westerdam

舫が降ろされ、接岸です。

20240407_0fushiki_13westerdam

本日夕方出航で、次は酒田です。

では、河原に転戦。

RJNT 070100Z VRB02KT CAVOK 19/08 Q1017

20240407_1rjnt_20hl8562

EOK322 RKTU-RJAA HL8562 A320-214

全天は半分くらい雲がかかっていますが、青空は綺麗。

RJNT 070200Z 35005KT 310V030 CAVOK 22/09 Q1017

定期便の到着を待っていると、上空を別府の展示に築城に展開していたブルーインパルス各機が上空通過。空模様が悪いのか、3編隊に別れてのIFRで次々と通過して行きました。

20240407_1rjnt_21ja81an

ここの桜は、もうちょっと

20240407_1rjnt_22ja81an
20240407_1rjnt_23ja81an

ANA315 RJTT-RJNT JA81AN B737-881

20240407_1rjnt_24ja81an
20240407_1rjnt_25ja81an
20240407_1rjnt_26ja81an

ANA316 RJNT-RJTT JA81AN B737-881

RJNT 070300Z 01005KT 310V050 9999 FEW020 BKN/// 21/09 Q1016

20240407_1rjnt_27ja63an
20240407_1rjnt_28ja63an

ANA1182 RJCC-RJNT JA63AN B737-881

RJNT 070400Z 02006KT 340V050 9999 FEW020 SCT/// 21/08 Q1016

20240407_1rjnt_29hl8355

AIH312 RKSI-RJAA HL8355 B737-8CXSF

20240407_1rjnt_30ja63an
20240407_1rjnt_31ja63an
20240407_1rjnt_32ja63an

ANA1181 RJNT-RJCC JA63AN B737-881

河原はこの辺で、ちょっと桜の名所を巡ってきます。

RJNT 070500Z 01008KT 330V050 9999 FEW020 22/09 Q1016

20240407_2higashiyatsuo_50jr1027d

久しぶりに鉄

20240407_2higashiyatsuo_51jr1027d

1027D D101

 

|

« 定点 富山空港他 2024/4/6 sat | トップページ | 定点 富山空港 2024/4/11 thu »

うみ」カテゴリの記事

てつ」カテゴリの記事

富山空港」カテゴリの記事

コメント

コメントを書く



(ウェブ上には掲載しません)


コメントは記事投稿者が公開するまで表示されません。



« 定点 富山空港他 2024/4/6 sat | トップページ | 定点 富山空港 2024/4/11 thu »